sensor_id;sensor_type;location;lat;lon;timestamp;P1;durP1;ratioP1;P2;durP2;ratioP2
22515;SDS011;11424;48.860;9.624;2022-09-09T00:02:56;2.7;;;5.7;;
22515;SDS011;11424;48.860;9.624;2022-09-09T00:07:55;3.6;;;8;;
22515;SDS011;11424;48.860;9.624;2022-09-09T00:12:55;4.1;;;9;;
22515;SDS011;11424;48.860;9.624;2022-09-09T00:17:56;4.4;;;10;;
22515;SDS011;11424;48.860;9.624;2022-09-09T00:22:56;4.2;;;9.4;;
22515;SDS011;11424;48.860;9.624;2022-09-09T00:27:54;2.9;;;6.9;;
22515;SDS011;11424;48.860;9.624;2022-09-09T00:32:55;4.4;;;9.8;;
22515;SDS011;11424;48.860;9.624;2022-09-09T00:37:55;5.2;;;11.8;;
22515;SDS011;11424;48.860;9.624;2022-09-09T00:42:59;4.3;;;9.5;;
22515;SDS011;11424;48.860;9.624;2022-09-09T00:47:54;3.2;;;6.8;;
22515;SDS011;11424;48.860;9.624;2022-09-09T00:52:56;5.2;;;12.2;;
22515;SDS011;11424;48.860;9.624;2022-09-09T00:57:54;5.7;;;12.3;;
22515;SDS011;11424;48.860;9.624;2022-09-09T01:02:58;5.2;;;11.3;;
22515;SDS011;11424;48.860;9.624;2022-09-09T01:07:54;4.2;;;10;;
22515;SDS011;11424;48.860;9.624;2022-09-09T01:12:54;4.6;;;12.4;;
22515;SDS011;11424;48.860;9.624;2022-09-09T01:17:56;4;;;9.6;;
22515;SDS011;11424;48.860;9.624;2022-09-09T01:22:59;5;;;12;;
22515;SDS011;11424;48.860;9.624;2022-09-09T01:27:54;5.4;;;12.2;;
22515;SDS011;11424;48.860;9.624;2022-09-09T01:32:55;5.3;;;11.2;;
22515;SDS011;11424;48.860;9.624;2022-09-09T01:37:54;3.8;;;8.9;;
22515;SDS011;11424;48.860;9.624;2022-09-09T01:42:54;4.5;;;11.3;;
22515;SDS011;11424;48.860;9.624;2022-09-09T01:47:54;5.5;;;13.8;;
22515;SDS011;11424;48.860;9.624;2022-09-09T01:52:57;5.5;;;13.1;;
22515;SDS011;11424;48.860;9.624;2022-09-09T01:57:56;5;;;14.3;;
22515;SDS011;11424;48.860;9.624;2022-09-09T02:02:55;4.3;;;10.5;;
22515;SDS011;11424;48.860;9.624;2022-09-09T02:07:55;3.5;;;10.8;;
22515;SDS011;11424;48.860;9.624;2022-09-09T02:12:55;5.3;;;13.2;;
22515;SDS011;11424;48.860;9.624;2022-09-09T02:17:54;4.2;;;10.1;;
22515;SDS011;11424;48.860;9.624;2022-09-09T02:22:54;5.3;;;13.2;;
22515;SDS011;11424;48.860;9.624;2022-09-09T02:27:54;4;;;10.7;;
22515;SDS011;11424;48.860;9.624;2022-09-09T02:32:55;3.9;;;9.5;;
22515;SDS011;11424;48.860;9.624;2022-09-09T02:37:54;4.1;;;10.1;;
22515;SDS011;11424;48.860;9.624;2022-09-09T02:42:54;4.6;;;11.1;;
22515;SDS011;11424;48.860;9.624;2022-09-09T02:47:55;5;;;12.8;;
22515;SDS011;11424;48.860;9.624;2022-09-09T02:52:58;4.2;;;10;;
22515;SDS011;11424;48.860;9.624;2022-09-09T02:57:54;4.7;;;12;;
22515;SDS011;11424;48.860;9.624;2022-09-09T03:02:55;4.1;;;12.5;;
22515;SDS011;11424;48.860;9.624;2022-09-09T03:07:54;3.7;;;9.1;;
22515;SDS011;11424;48.860;9.624;2022-09-09T03:12:54;4.8;;;13.2;;
22515;SDS011;11424;48.860;9.624;2022-09-09T03:17:54;4.2;;;10.7;;
22515;SDS011;11424;48.860;9.624;2022-09-09T03:22:54;4.8;;;12;;
22515;SDS011;11424;48.860;9.624;2022-09-09T03:27:55;3.2;;;8.3;;
22515;SDS011;11424;48.860;9.624;2022-09-09T03:32:54;5.4;;;14.7;;
22515;SDS011;11424;48.860;9.624;2022-09-09T03:37:54;5.5;;;13.6;;
22515;SDS011;11424;48.860;9.624;2022-09-09T03:42:54;4.3;;;12.7;;
22515;SDS011;11424;48.860;9.624;2022-09-09T03:47:54;2.7;;;4.2;;
22515;SDS011;11424;48.860;9.624;2022-09-09T03:52:54;2.7;;;3.8;;
22515;SDS011;11424;48.860;9.624;2022-09-09T03:57:54;3;;;5.3;;
22515;SDS011;11424;48.860;9.624;2022-09-09T04:02:54;2.3;;;4.3;;
22515;SDS011;11424;48.860;9.624;2022-09-09T04:07:54;2.6;;;3.9;;
22515;SDS011;11424;48.860;9.624;2022-09-09T04:12:54;3.1;;;5.2;;
22515;SDS011;11424;48.860;9.624;2022-09-09T04:17:54;3.8;;;5.7;;
22515;SDS011;11424;48.860;9.624;2022-09-09T04:22:54;3.3;;;6.3;;
22515;SDS011;11424;48.860;9.624;2022-09-09T04:27:55;3.5;;;8.1;;
22515;SDS011;11424;48.860;9.624;2022-09-09T04:32:54;2.3;;;2.8;;
22515;SDS011;11424;48.860;9.624;2022-09-09T04:37:54;3.2;;;7;;
22515;SDS011;11424;48.860;9.624;2022-09-09T04:42:54;2.8;;;5.5;;
22515;SDS011;11424;48.860;9.624;2022-09-09T04:47:54;3;;;4.2;;
22515;SDS011;11424;48.860;9.624;2022-09-09T04:52:54;3.3;;;5.5;;
22515;SDS011;11424;48.860;9.624;2022-09-09T04:57:54;3.4;;;5.1;;
22515;SDS011;11424;48.860;9.624;2022-09-09T05:02:54;3.2;;;6.4;;
22515;SDS011;11424;48.860;9.624;2022-09-09T05:07:59;3.2;;;5.5;;
22515;SDS011;11424;48.860;9.624;2022-09-09T05:12:54;2.8;;;5.4;;
22515;SDS011;11424;48.860;9.624;2022-09-09T05:17:56;3;;;4.7;;
22515;SDS011;11424;48.860;9.624;2022-09-09T05:22:54;2.7;;;4.3;;
22515;SDS011;11424;48.860;9.624;2022-09-09T05:27:54;3;;;4.8;;
22515;SDS011;11424;48.860;9.624;2022-09-09T05:32:55;2.4;;;4.3;;
22515;SDS011;11424;48.860;9.624;2022-09-09T05:37:58;3.3;;;5.5;;
22515;SDS011;11424;48.860;9.624;2022-09-09T05:42:54;2.9;;;5.1;;
22515;SDS011;11424;48.860;9.624;2022-09-09T05:47:54;4.2;;;6.9;;
22515;SDS011;11424;48.860;9.624;2022-09-09T05:52:54;2.7;;;4.6;;
22515;SDS011;11424;48.860;9.624;2022-09-09T05:57:54;2.9;;;4.3;;
22515;SDS011;11424;48.860;9.624;2022-09-09T06:02:54;2.6;;;4.1;;
22515;SDS011;11424;48.860;9.624;2022-09-09T06:07:55;3.6;;;5.9;;
22515;SDS011;11424;48.860;9.624;2022-09-09T06:12:54;3.1;;;5.6;;
22515;SDS011;11424;48.860;9.624;2022-09-09T06:17:54;2.1;;;2.3;;
22515;SDS011;11424;48.860;9.624;2022-09-09T06:22:54;3.4;;;4.5;;
22515;SDS011;11424;48.860;9.624;2022-09-09T06:27:55;4.2;;;6.9;;
22515;SDS011;11424;48.860;9.624;2022-09-09T06:32:55;3.3;;;5.8;;
22515;SDS011;11424;48.860;9.624;2022-09-09T06:37:55;2.8;;;5.3;;
22515;SDS011;11424;48.860;9.624;2022-09-09T06:42:54;2.3;;;3.2;;
22515;SDS011;11424;48.860;9.624;2022-09-09T06:47:55;3.2;;;4.6;;
22515;SDS011;11424;48.860;9.624;2022-09-09T06:52:55;3.7;;;6.6;;
22515;SDS011;11424;48.860;9.624;2022-09-09T06:57:55;3.8;;;6.6;;
22515;SDS011;11424;48.860;9.624;2022-09-09T07:02:55;3.8;;;6.8;;
22515;SDS011;11424;48.860;9.624;2022-09-09T07:07:55;3;;;3.9;;
22515;SDS011;11424;48.860;9.624;2022-09-09T07:12:55;4.3;;;7.9;;
22515;SDS011;11424;48.860;9.624;2022-09-09T07:17:55;1.9;;;2.1;;
22515;SDS011;11424;48.860;9.624;2022-09-09T07:22:55;2.5;;;4.2;;
22515;SDS011;11424;48.860;9.624;2022-09-09T07:27:55;2.9;;;4.9;;
22515;SDS011;11424;48.860;9.624;2022-09-09T07:32:55;3.2;;;5.7;;
22515;SDS011;11424;48.860;9.624;2022-09-09T07:37:55;3.2;;;5.5;;
22515;SDS011;11424;48.860;9.624;2022-09-09T07:42:55;2;;;2.9;;
22515;SDS011;11424;48.860;9.624;2022-09-09T07:47:55;2.6;;;3.5;;
22515;SDS011;11424;48.860;9.624;2022-09-09T07:52:55;3;;;5.8;;
22515;SDS011;11424;48.860;9.624;2022-09-09T07:57:55;2.6;;;4.1;;
22515;SDS011;11424;48.860;9.624;2022-09-09T08:02:55;2.7;;;5.1;;
22515;SDS011;11424;48.860;9.624;2022-09-09T08:07:55;2.4;;;4.1;;
22515;SDS011;11424;48.860;9.624;2022-09-09T08:12:55;2.4;;;3.4;;
22515;SDS011;11424;48.860;9.624;2022-09-09T08:17:55;2.8;;;4.6;;
22515;SDS011;11424;48.860;9.624;2022-09-09T08:22:55;2.8;;;5.3;;
22515;SDS011;11424;48.860;9.624;2022-09-09T08:27:55;2.7;;;4.8;;
22515;SDS011;11424;48.860;9.624;2022-09-09T08:32:55;2.8;;;5.3;;
22515;SDS011;11424;48.860;9.624;2022-09-09T08:37:55;3.1;;;5.2;;
22515;SDS011;11424;48.860;9.624;2022-09-09T08:42:55;2.7;;;4;;
22515;SDS011;11424;48.860;9.624;2022-09-09T08:48:00;2.9;;;4.5;;
22515;SDS011;11424;48.860;9.624;2022-09-09T08:52:56;3.8;;;6.8;;
22515;SDS011;11424;48.860;9.624;2022-09-09T08:57:55;3;;;5.3;;
22515;SDS011;11424;48.860;9.624;2022-09-09T09:02:57;2.9;;;5.7;;
22515;SDS011;11424;48.860;9.624;2022-09-09T09:07:58;1.7;;;2.1;;
22515;SDS011;11424;48.860;9.624;2022-09-09T09:12:55;3;;;5;;
22515;SDS011;11424;48.860;9.624;2022-09-09T09:17:55;3.5;;;5.9;;
22515;SDS011;11424;48.860;9.624;2022-09-09T09:22:55;2.5;;;4.7;;
22515;SDS011;11424;48.860;9.624;2022-09-09T09:27:57;2.7;;;4.4;;
22515;SDS011;11424;48.860;9.624;2022-09-09T09:32:55;2.5;;;4.2;;
22515;SDS011;11424;48.860;9.624;2022-09-09T09:37:55;2;;;2.5;;
22515;SDS011;11424;48.860;9.624;2022-09-09T09:42:57;2.5;;;3.9;;
22515;SDS011;11424;48.860;9.624;2022-09-09T09:47:58;4.5;;;9.5;;
22515;SDS011;11424;48.860;9.624;2022-09-09T09:52:55;4;;;10.7;;
22515;SDS011;11424;48.860;9.624;2022-09-09T09:58:00;6.1;;;13.4;;
22515;SDS011;11424;48.860;9.624;2022-09-09T10:02:55;4;;;10.5;;
22515;SDS011;11424;48.860;9.624;2022-09-09T10:08:03;4.2;;;10.1;;
22515;SDS011;11424;48.860;9.624;2022-09-09T10:12:57;5.2;;;12.7;;
22515;SDS011;11424;48.860;9.624;2022-09-09T10:17:56;5.5;;;13.1;;
22515;SDS011;11424;48.860;9.624;2022-09-09T10:22:57;6.1;;;13.6;;
22515;SDS011;11424;48.860;9.624;2022-09-09T10:28:02;4.3;;;10.3;;
22515;SDS011;11424;48.860;9.624;2022-09-09T10:32:56;4.9;;;12.9;;
22515;SDS011;11424;48.860;9.624;2022-09-09T10:38:00;4.9;;;12.6;;
22515;SDS011;11424;48.860;9.624;2022-09-09T10:42:55;4.3;;;10.9;;
22515;SDS011;11424;48.860;9.624;2022-09-09T10:47:59;5;;;12.8;;
22515;SDS011;11424;48.860;9.624;2022-09-09T10:52:56;3.7;;;8.8;;
22515;SDS011;11424;48.860;9.624;2022-09-09T10:57:55;4.4;;;11;;
22515;SDS011;11424;48.860;9.624;2022-09-09T11:02:56;5.1;;;12.1;;
22515;SDS011;11424;48.860;9.624;2022-09-09T11:07:56;5;;;11.7;;
22515;SDS011;11424;48.860;9.624;2022-09-09T11:12:56;4.8;;;11.9;;
22515;SDS011;11424;48.860;9.624;2022-09-09T11:17:56;4.6;;;11.4;;
22515;SDS011;11424;48.860;9.624;2022-09-09T11:22:55;3.6;;;9.8;;
22515;SDS011;11424;48.860;9.624;2022-09-09T11:28:01;5;;;11;;
22515;SDS011;11424;48.860;9.624;2022-09-09T11:33:00;5.6;;;14.5;;
22515;SDS011;11424;48.860;9.624;2022-09-09T11:38:00;4.8;;;12.8;;
22515;SDS011;11424;48.860;9.624;2022-09-09T11:43:03;4.8;;;12.1;;
22515;SDS011;11424;48.860;9.624;2022-09-09T11:47:55;4.4;;;10.7;;
22515;SDS011;11424;48.860;9.624;2022-09-09T11:53:03;5.5;;;13;;
22515;SDS011;11424;48.860;9.624;2022-09-09T11:57:57;7.1;;;16.5;;
22515;SDS011;11424;48.860;9.624;2022-09-09T12:02:55;5.9;;;14.2;;
22515;SDS011;11424;48.860;9.624;2022-09-09T12:07:55;4.6;;;11;;
22515;SDS011;11424;48.860;9.624;2022-09-09T12:12:55;6.6;;;16.1;;
22515;SDS011;11424;48.860;9.624;2022-09-09T12:17:56;4.6;;;10.6;;
22515;SDS011;11424;48.860;9.624;2022-09-09T12:22:59;5.4;;;12.4;;
22515;SDS011;11424;48.860;9.624;2022-09-09T12:28:00;3.3;;;8.6;;
22515;SDS011;11424;48.860;9.624;2022-09-09T12:32:58;5.1;;;13.3;;
22515;SDS011;11424;48.860;9.624;2022-09-09T12:37:55;5.3;;;12.8;;
22515;SDS011;11424;48.860;9.624;2022-09-09T12:42:55;4.3;;;10.3;;
22515;SDS011;11424;48.860;9.624;2022-09-09T12:47:55;3.2;;;7.7;;
22515;SDS011;11424;48.860;9.624;2022-09-09T12:52:56;4.5;;;10.7;;
22515;SDS011;11424;48.860;9.624;2022-09-09T12:57:55;3.3;;;7.9;;
22515;SDS011;11424;48.860;9.624;2022-09-09T13:02:55;3.8;;;9.2;;
22515;SDS011;11424;48.860;9.624;2022-09-09T13:08:00;4.4;;;9.9;;
22515;SDS011;11424;48.860;9.624;2022-09-09T13:12:55;3.8;;;8.7;;
22515;SDS011;11424;48.860;9.624;2022-09-09T13:17:56;4;;;9.3;;
22515;SDS011;11424;48.860;9.624;2022-09-09T13:22:55;3.2;;;7;;
22515;SDS011;11424;48.860;9.624;2022-09-09T13:27:56;3;;;6.8;;
22515;SDS011;11424;48.860;9.624;2022-09-09T13:33:04;2.9;;;7.6;;
22515;SDS011;11424;48.860;9.624;2022-09-09T13:37:55;4.6;;;11.6;;
22515;SDS011;11424;48.860;9.624;2022-09-09T13:42:56;3.3;;;7.8;;
22515;SDS011;11424;48.860;9.624;2022-09-09T13:47:55;3.4;;;6.6;;
22515;SDS011;11424;48.860;9.624;2022-09-09T13:52:56;3.8;;;8.5;;
22515;SDS011;11424;48.860;9.624;2022-09-09T13:57:56;4.1;;;9.7;;
22515;SDS011;11424;48.860;9.624;2022-09-09T14:02:55;5.5;;;11.9;;
22515;SDS011;11424;48.860;9.624;2022-09-09T14:07:55;4.5;;;9.5;;
22515;SDS011;11424;48.860;9.624;2022-09-09T14:12:55;2.4;;;5;;
22515;SDS011;11424;48.860;9.624;2022-09-09T14:17:55;3.5;;;8.5;;
22515;SDS011;11424;48.860;9.624;2022-09-09T14:22:55;3.4;;;7;;
22515;SDS011;11424;48.860;9.624;2022-09-09T14:27:55;3.2;;;7.2;;
22515;SDS011;11424;48.860;9.624;2022-09-09T14:32:55;3.1;;;6.8;;
22515;SDS011;11424;48.860;9.624;2022-09-09T14:37:55;2.6;;;6.9;;
22515;SDS011;11424;48.860;9.624;2022-09-09T14:42:55;4;;;8.9;;
22515;SDS011;11424;48.860;9.624;2022-09-09T14:47:55;3.3;;;7.6;;
22515;SDS011;11424;48.860;9.624;2022-09-09T14:52:55;3.4;;;8.4;;
22515;SDS011;11424;48.860;9.624;2022-09-09T14:57:55;4;;;8.1;;
22515;SDS011;11424;48.860;9.624;2022-09-09T15:02:55;2.9;;;5.9;;
22515;SDS011;11424;48.860;9.624;2022-09-09T15:07:55;3.3;;;6.8;;
22515;SDS011;11424;48.860;9.624;2022-09-09T15:12:55;2.7;;;5.4;;
22515;SDS011;11424;48.860;9.624;2022-09-09T15:17:55;3.3;;;8;;
22515;SDS011;11424;48.860;9.624;2022-09-09T15:22:55;3.8;;;9;;
22515;SDS011;11424;48.860;9.624;2022-09-09T15:27:55;3.2;;;8.3;;
22515;SDS011;11424;48.860;9.624;2022-09-09T15:32:55;3;;;6.9;;
22515;SDS011;11424;48.860;9.624;2022-09-09T15:37:55;2.8;;;7.3;;
22515;SDS011;11424;48.860;9.624;2022-09-09T15:42:55;3.6;;;7.7;;
22515;SDS011;11424;48.860;9.624;2022-09-09T15:47:55;3.1;;;6.1;;
22515;SDS011;11424;48.860;9.624;2022-09-09T15:52:55;5.4;;;8;;
22515;SDS011;11424;48.860;9.624;2022-09-09T15:57:55;2.2;;;3.1;;
22515;SDS011;11424;48.860;9.624;2022-09-09T16:02:55;2.4;;;2.6;;
22515;SDS011;11424;48.860;9.624;2022-09-09T16:07:55;2;;;2.2;;
22515;SDS011;11424;48.860;9.624;2022-09-09T16:12:55;1.6;;;1.8;;
22515;SDS011;11424;48.860;9.624;2022-09-09T16:17:55;2;;;2.2;;
22515;SDS011;11424;48.860;9.624;2022-09-09T16:22:55;2.6;;;3.6;;
22515;SDS011;11424;48.860;9.624;2022-09-09T16:27:55;2.3;;;3.3;;
22515;SDS011;11424;48.860;9.624;2022-09-09T16:32:55;1.7;;;1.8;;
22515;SDS011;11424;48.860;9.624;2022-09-09T16:37:55;1.4;;;1.5;;
22515;SDS011;11424;48.860;9.624;2022-09-09T16:42:55;2;;;2.2;;
22515;SDS011;11424;48.860;9.624;2022-09-09T16:47:55;1.4;;;1.5;;
22515;SDS011;11424;48.860;9.624;2022-09-09T16:52:55;2.2;;;5.5;;
22515;SDS011;11424;48.860;9.624;2022-09-09T16:57:55;2.5;;;3.1;;
22515;SDS011;11424;48.860;9.624;2022-09-09T17:02:55;2.2;;;2.4;;
22515;SDS011;11424;48.860;9.624;2022-09-09T17:07:55;1.9;;;2.3;;
22515;SDS011;11424;48.860;9.624;2022-09-09T17:12:55;2.2;;;2.7;;
22515;SDS011;11424;48.860;9.624;2022-09-09T17:17:55;2.3;;;2.8;;
22515;SDS011;11424;48.860;9.624;2022-09-09T17:22:55;1.6;;;1.7;;
22515;SDS011;11424;48.860;9.624;2022-09-09T17:27:55;2.3;;;3.1;;
22515;SDS011;11424;48.860;9.624;2022-09-09T17:32:55;2.1;;;2.4;;
22515;SDS011;11424;48.860;9.624;2022-09-09T17:37:55;2.2;;;2.7;;
22515;SDS011;11424;48.860;9.624;2022-09-09T17:42:56;1.7;;;2.5;;
22515;SDS011;11424;48.860;9.624;2022-09-09T17:47:55;2.1;;;2.4;;
22515;SDS011;11424;48.860;9.624;2022-09-09T17:52:55;2.3;;;2.7;;
22515;SDS011;11424;48.860;9.624;2022-09-09T17:57:55;3;;;5.1;;
22515;SDS011;11424;48.860;9.624;2022-09-09T18:02:55;1.4;;;1.5;;
22515;SDS011;11424;48.860;9.624;2022-09-09T18:07:55;1.6;;;1.7;;
22515;SDS011;11424;48.860;9.624;2022-09-09T18:12:55;1.4;;;1.5;;
22515;SDS011;11424;48.860;9.624;2022-09-09T18:17:55;1.7;;;2.2;;
22515;SDS011;11424;48.860;9.624;2022-09-09T18:22:55;1.8;;;2;;
22515;SDS011;11424;48.860;9.624;2022-09-09T18:27:55;2.2;;;2.5;;
22515;SDS011;11424;48.860;9.624;2022-09-09T18:32:55;1.8;;;2;;
22515;SDS011;11424;48.860;9.624;2022-09-09T18:37:55;1.7;;;2.1;;
22515;SDS011;11424;48.860;9.624;2022-09-09T18:42:56;1.5;;;1.8;;
22515;SDS011;11424;48.860;9.624;2022-09-09T18:47:55;1.6;;;2.3;;
22515;SDS011;11424;48.860;9.624;2022-09-09T18:52:55;2.8;;;3.5;;
22515;SDS011;11424;48.860;9.624;2022-09-09T18:57:55;3;;;5.1;;
22515;SDS011;11424;48.860;9.624;2022-09-09T19:02:55;2.5;;;3.9;;
22515;SDS011;11424;48.860;9.624;2022-09-09T19:07:55;1.9;;;2.2;;
22515;SDS011;11424;48.860;9.624;2022-09-09T19:12:55;1.5;;;1.9;;
22515;SDS011;11424;48.860;9.624;2022-09-09T19:17:55;2.1;;;2.5;;
22515;SDS011;11424;48.860;9.624;2022-09-09T19:22:55;2;;;2.3;;
22515;SDS011;11424;48.860;9.624;2022-09-09T19:27:55;1.9;;;3;;
22515;SDS011;11424;48.860;9.624;2022-09-09T19:32:55;1.6;;;3.5;;
22515;SDS011;11424;48.860;9.624;2022-09-09T19:37:56;2.1;;;2.7;;
22515;SDS011;11424;48.860;9.624;2022-09-09T19:42:56;2;;;2.9;;
22515;SDS011;11424;48.860;9.624;2022-09-09T19:47:55;2;;;2.6;;
22515;SDS011;11424;48.860;9.624;2022-09-09T19:52:55;1.6;;;2.5;;
22515;SDS011;11424;48.860;9.624;2022-09-09T19:57:56;1.6;;;1.7;;
22515;SDS011;11424;48.860;9.624;2022-09-09T20:02:56;1.5;;;1.6;;
22515;SDS011;11424;48.860;9.624;2022-09-09T20:07:56;1.4;;;1.5;;
22515;SDS011;11424;48.860;9.624;2022-09-09T20:12:55;1.6;;;1.7;;
22515;SDS011;11424;48.860;9.624;2022-09-09T20:17:56;1.1;;;1.5;;
22515;SDS011;11424;48.860;9.624;2022-09-09T20:22:56;2.2;;;2.4;;
22515;SDS011;11424;48.860;9.624;2022-09-09T20:27:56;2.1;;;4.7;;
22515;SDS011;11424;48.860;9.624;2022-09-09T20:32:56;1.7;;;2;;
22515;SDS011;11424;48.860;9.624;2022-09-09T20:37:56;1.5;;;1.6;;
22515;SDS011;11424;48.860;9.624;2022-09-09T20:42:56;1.3;;;1.4;;
22515;SDS011;11424;48.860;9.624;2022-09-09T20:47:56;1.9;;;2.1;;
22515;SDS011;11424;48.860;9.624;2022-09-09T20:52:56;1.6;;;1.8;;
22515;SDS011;11424;48.860;9.624;2022-09-09T20:57:56;1.7;;;3.2;;
22515;SDS011;11424;48.860;9.624;2022-09-09T21:02:56;1.3;;;1.6;;
22515;SDS011;11424;48.860;9.624;2022-09-09T21:07:56;1.7;;;3.1;;
22515;SDS011;11424;48.860;9.624;2022-09-09T21:12:56;1.4;;;2;;
22515;SDS011;11424;48.860;9.624;2022-09-09T21:17:56;1.4;;;1.5;;
22515;SDS011;11424;48.860;9.624;2022-09-09T21:22:56;1.4;;;1.5;;
22515;SDS011;11424;48.860;9.624;2022-09-09T21:27:56;1.3;;;1.4;;
22515;SDS011;11424;48.860;9.624;2022-09-09T21:32:56;1.5;;;2.4;;
22515;SDS011;11424;48.860;9.624;2022-09-09T21:37:56;1.4;;;1.5;;
22515;SDS011;11424;48.860;9.624;2022-09-09T21:42:56;1.2;;;1.2;;
22515;SDS011;11424;48.860;9.624;2022-09-09T21:47:56;1.3;;;1.4;;
22515;SDS011;11424;48.860;9.624;2022-09-09T21:52:56;5.8;;;13.9;;
22515;SDS011;11424;48.860;9.624;2022-09-09T21:57:56;3.7;;;8.3;;
22515;SDS011;11424;48.860;9.624;2022-09-09T22:02:57;3;;;6.7;;
22515;SDS011;11424;48.860;9.624;2022-09-09T22:07:56;3.2;;;8;;
22515;SDS011;11424;48.860;9.624;2022-09-09T22:12:56;3.3;;;7.2;;
22515;SDS011;11424;48.860;9.624;2022-09-09T22:17:56;3.2;;;6.2;;
22515;SDS011;11424;48.860;9.624;2022-09-09T22:22:56;3.4;;;7.4;;
22515;SDS011;11424;48.860;9.624;2022-09-09T22:27:56;2.8;;;5.8;;
22515;SDS011;11424;48.860;9.624;2022-09-09T22:32:56;4.2;;;9.2;;
22515;SDS011;11424;48.860;9.624;2022-09-09T22:37:56;2.6;;;5.7;;
22515;SDS011;11424;48.860;9.624;2022-09-09T22:42:56;4.5;;;10.7;;
22515;SDS011;11424;48.860;9.624;2022-09-09T22:47:56;3.5;;;8.1;;
22515;SDS011;11424;48.860;9.624;2022-09-09T22:52:56;4.9;;;11.8;;
22515;SDS011;11424;48.860;9.624;2022-09-09T22:57:56;4;;;10.8;;
22515;SDS011;11424;48.860;9.624;2022-09-09T23:02:56;5.4;;;12.7;;
22515;SDS011;11424;48.860;9.624;2022-09-09T23:07:56;5;;;12.2;;
22515;SDS011;11424;48.860;9.624;2022-09-09T23:12:56;5.1;;;12.7;;
22515;SDS011;11424;48.860;9.624;2022-09-09T23:17:56;3.9;;;10.8;;
22515;SDS011;11424;48.860;9.624;2022-09-09T23:22:56;5.2;;;13.1;;
22515;SDS011;11424;48.860;9.624;2022-09-09T23:27:57;4.1;;;12.9;;
22515;SDS011;11424;48.860;9.624;2022-09-09T23:32:56;4.5;;;11.5;;
22515;SDS011;11424;48.860;9.624;2022-09-09T23:37:56;4.1;;;9.2;;
22515;SDS011;11424;48.860;9.624;2022-09-09T23:42:56;4.4;;;11;;
22515;SDS011;11424;48.860;9.624;2022-09-09T23:47:56;4.9;;;13.3;;
22515;SDS011;11424;48.860;9.624;2022-09-09T23:52:56;4.9;;;13.7;;
22515;SDS011;11424;48.860;9.624;2022-09-09T23:57:56;4.6;;;13.2;;
